This is the latest recevied weather packets stored in our database for station/object WA0RTO. If no packets are shown the sender has not sent any weather packets the latest 10 day(s).
| Time | Temp. | Humidity | Pressure | Rain* | Wind** | Luminosity | Snow |
|---|---|---|---|---|---|---|---|
| 1787501836 | 98° F | 29% | 754.6 mmHg | 0 in | - | - | - |
| 1787501589 | 98° F | 29% | 754.6 mmHg | 0 in | - | - | - |
| 1787500943 | 95° F | 30% | 754.9 mmHg | 0 in | - | - | - |
| 1787500689 | 95° F | 30% | 754.9 mmHg | 0 in | - | - | - |
| 1787499790 | 95° F | 32% | 754.9 mmHg | 0 in | - | - | - |
| 1787499024 | 92° F | 34% | 754.9 mmHg | 0 in | - | - | - |
| 1787498888 | 92° F | 34% | 754.9 mmHg | 0 in | - | - | - |
| 1787497989 | 90° F | 38% | 754.9 mmHg | 0 in | - | - | - |
| 1787497279 | 88° F | 40% | 754.9 mmHg | 0 in | - | - | - |
| 1787497086 | 88° F | 40% | 754.9 mmHg | 0 in | - | - | - |
| 1787368088 | 96° F | 27% | 754.3 mmHg | 0 in | - | - | - |
| 1787367949 | 96° F | 27% | 754.3 mmHg | 0 in | - | - | - |
| 1787367210 | 94° F | 28% | 754.5 mmHg | 0 in | - | - | - |
| 1787367049 | 94° F | 28% | 754.5 mmHg | 0 in | - | - | - |
| 1787366265 | 95° F | 27% | 754.6 mmHg | 0 in | - | - | - |
| 1787366152 | 95° F | 27% | 754.6 mmHg | 0 in | - | - | - |
| 1787365368 | 95° F | 26% | 754.7 mmHg | 0 in | - | - | - |
| 1787365250 | 95° F | 26% | 754.7 mmHg | 0 in | - | - | - |
| 1787364351 | 95° F | 27% | 754.4 mmHg | 0 in | - | - | - |
| 1787363520 | 95° F | 26% | 754.1 mmHg | 0 in | - | - | - |
| 1787363447 | 95° F | 26% | 754.1 mmHg | 0 in | - | - | - |
* Rain latest hour (hover to see other rain measurements)
** Current wind speed in m/s (hover to see current wind gust speed)